Time;durP1;ratioP1;P1;durP2;ratioP2;P2;SDS_P1;SDS_P2;PMS_P1;PMS_P2;Temp;Humidity;BMP_temperature;BMP_pressure;BME280_temperature;BME280_humidity;BME280_pressure;Samples;Min_cycle;Max_cycle;Signal;HPM_P1;HPM_P2
2022/12/09 00:02:22;;;;;;;18.95;12.77;;;0.50;1.00;;;;;;5041959;28;20269;-84
2022/12/09 00:04:50;;;;;;;17.52;11.88;;;0.40;1.00;;;;;;5045207;28;21028;-83
2022/12/09 00:07:23;;;;;;;22.40;13.50;;;0.50;1.00;;;;;;5042753;28;21199;-80
2022/12/09 00:09:51;;;;;;;19.70;13.40;;;0.40;1.00;;;;;;5042027;28;20259;-79
2022/12/09 00:12:30;;;;;;;19.88;14.60;;;0.50;1.00;;;;;;5040309;28;20246;-78
2022/12/09 00:14:57;;;;;;;20.02;13.95;;;0.50;1.00;;;;;;5037986;28;20253;-80
2022/12/09 00:17:24;;;;;;;21.73;14.82;;;0.60;1.00;;;;;;5057687;28;20225;-78
2022/12/09 00:19:51;;;;;;;23.42;14.95;;;0.60;1.00;;;;;;5056895;28;20255;-82
2022/12/09 00:22:26;;;;;;;23.02;15.15;;;0.60;1.00;;;;;;5061633;28;20244;-79
2022/12/09 00:24:53;;;;;;;21.27;15.32;;;0.60;1.00;;;;;;5064922;28;20247;-83
2022/12/09 00:27:28;;;;;;;25.02;18.00;;;0.60;1.00;;;;;;5053711;28;20225;-85
2022/12/09 00:29:55;;;;;;;21.73;14.05;;;0.50;1.00;;;;;;5054810;28;20818;-81
2022/12/09 00:32:23;;;;;;;24.40;15.65;;;0.50;1.00;;;;;;5055499;28;20412;-78
2022/12/09 00:34:56;;;;;;;25.98;15.63;;;0.50;1.00;;;;;;5059781;28;20255;-79
2022/12/09 00:37:34;;;;;;;22.38;15.82;;;0.60;1.00;;;;;;5055567;28;20225;-80
2022/12/09 00:40:01;;;;;;;24.77;16.58;;;0.60;1.00;;;;;;5059846;28;20241;-78
2022/12/09 00:42:36;;;;;;;25.80;18.42;;;0.60;1.00;;;;;;5066431;28;20233;-82
2022/12/09 00:45:06;;;;;;;27.15;17.92;;;0.50;1.00;;;;;;5331086;22;20233;-82
2022/12/09 00:47:35;;;;;;;26.23;18.50;;;0.60;1.00;;;;;;5064134;28;20205;-82
2022/12/09 00:50:02;;;;;;;28.58;18.55;;;0.60;1.00;;;;;;5060502;28;20238;-78
2022/12/09 00:52:39;;;;;;;27.52;18.40;;;0.60;1.00;;;;;;5044329;28;20230;-77
2022/12/09 00:55:06;;;;;;;23.40;17.10;;;0.60;1.00;;;;;;5042464;28;20240;-77
2022/12/09 00:57:34;;;;;;;30.65;20.35;;;0.50;1.00;;;;;;5052967;28;20245;-81
2022/12/09 01:00:34;;;;;;;31.17;19.77;;;0.60;1.00;;;;;;5037888;28;20293;-77
2022/12/09 01:03:01;;;;;;;30.25;20.15;;;0.50;1.00;;;;;;5036307;28;20246;-77
2022/12/09 01:05:33;;;;;;;33.75;25.70;;;0.40;1.00;;;;;;5039606;28;20250;-84
2022/12/09 01:08:02;;;;;;;29.45;18.80;;;0.40;1.00;;;;;;5039355;28;20257;-78
2022/12/09 01:10:34;;;;;;;27.60;18.00;;;0.30;1.00;;;;;;5037738;28;20249;-78
2022/12/09 01:13:01;;;;;;;27.73;19.55;;;0.20;1.00;;;;;;5036226;28;20717;-82
2022/12/09 01:15:33;;;;;;;27.10;18.25;;;0.30;1.00;;;;;;5043009;28;20250;-83
2022/12/09 01:18:13;;;;;;;27.90;20.80;;;0.20;1.00;;;;;;5039896;28;20238;-84
2022/12/09 01:20:43;;;;;;;30.35;19.63;;;0.20;1.00;;;;;;5043625;28;20265;-84
2022/12/09 01:23:17;;;;;;;31.13;18.92;;;0.20;1.00;;;;;;5034224;28;21010;-78
2022/12/09 01:25:44;;;;;;;31.77;20.25;;;0.20;1.00;;;;;;5062109;28;20236;-77
2022/12/09 01:28:14;;;;;;;29.88;20.55;;;0.20;1.00;;;;;;5055933;28;20232;-77
2022/12/09 01:30:41;;;;;;;34.25;19.98;;;0.20;1.00;;;;;;5041419;28;20333;-77
2022/12/09 01:33:11;;;;;;;28.52;19.40;;;0.10;1.00;;;;;;5038733;28;20248;-78
2022/12/09 01:35:40;;;;;;;31.17;19.08;;;0.20;1.00;;;;;;5038151;28;20242;-84
2022/12/09 01:38:12;;;;;;;29.70;20.45;;;0.20;1.00;;;;;;5052145;28;20241;-83
2022/12/09 01:40:56;;;;;;;27.75;19.40;;;0.20;1.00;;;;;;5057804;28;20295;-81
2022/12/09 01:43:23;;;;;;;32.72;21.52;;;0.00;1.00;;;;;;5056493;28;20237;-82
2022/12/09 01:45:58;;;;;;;27.95;20.20;;;0.00;1.00;;;;;;5042466;28;20218;-84
2022/12/09 01:48:35;;;;;;;32.30;21.42;;;0.00;1.00;;;;;;5039276;28;20283;-84
2022/12/09 01:51:13;;;;;;;30.98;21.50;;;-0.10;1.00;;;;;;5041569;28;20256;-81
2022/12/09 01:53:43;;;;;;;27.98;18.30;;;-0.20;1.00;;;;;;5060604;28;20247;-81
2022/12/09 01:56:20;;;;;;;33.20;22.20;;;-0.30;1.00;;;;;;5055139;28;20276;-84
2022/12/09 01:58:52;;;;;;;27.38;19.92;;;-0.30;1.00;;;;;;5040270;28;20729;-79
2022/12/09 02:01:33;;;;;;;32.10;20.67;;;-0.30;1.00;;;;;;5033414;28;20678;-86
2022/12/09 02:04:01;;;;;;;32.17;21.27;;;-0.30;1.00;;;;;;5044978;28;20256;-81
2022/12/09 02:06:35;;;;;;;30.15;20.92;;;-0.40;1.00;;;;;;5041292;28;21140;-83
2022/12/09 02:09:13;;;;;;;39.17;22.27;;;-0.40;1.00;;;;;;5042486;28;20388;-85
2022/12/09 02:11:55;;;;;;;30.40;20.55;;;-0.30;1.00;;;;;;5040368;28;20244;-79
2022/12/09 02:14:29;;;;;;;31.80;21.17;;;-0.30;1.00;;;;;;5042768;28;20242;-83
2022/12/09 02:17:26;;;;;;;33.67;22.38;;;-0.30;1.00;;;;;;5038376;28;20237;-84
2022/12/09 02:20:04;;;;;;;28.20;21.13;;;-0.30;1.00;;;;;;5039340;28;20230;-80
2022/12/09 02:22:40;;;;;;;27.45;19.23;;;-0.20;1.00;;;;;;5053015;28;20236;-85
2022/12/09 02:25:24;;;;;;;30.30;21.45;;;-0.30;1.00;;;;;;5056951;28;20237;-82
2022/12/09 02:28:14;;;;;;;32.30;21.70;;;-0.20;1.00;;;;;;5056453;28;20224;-77
2022/12/09 02:30:54;;;;;;;36.17;22.75;;;-0.20;1.00;;;;;;5047433;28;20256;-86
2022/12/09 02:33:40;;;;;;;33.67;23.63;;;-0.10;1.00;;;;;;5040379;28;20284;-77
2022/12/09 02:36:17;;;;;;;29.85;19.60;;;0.00;1.00;;;;;;5034710;28;20238;-80
2022/12/09 02:38:44;;;;;;;29.63;19.83;;;0.20;1.00;;;;;;5036528;28;20271;-80
2022/12/09 02:41:19;;;;;;;32.05;21.50;;;0.10;1.00;;;;;;5035966;28;20244;-79
2022/12/09 02:43:54;;;;;;;29.05;19.48;;;0.10;1.00;;;;;;5041037;28;20975;-78
2022/12/09 02:46:22;;;;;;;31.15;20.67;;;0.20;1.00;;;;;;5037522;28;20252;-86
2022/12/09 02:48:58;;;;;;;29.30;21.75;;;0.20;1.00;;;;;;5038309;28;20245;-77
2022/12/09 02:51:35;;;;;;;31.45;21.85;;;0.20;1.00;;;;;;5039292;28;20291;-83
2022/12/09 02:54:15;;;;;;;33.50;22.23;;;0.10;1.00;;;;;;5036018;28;20243;-81
2022/12/09 02:56:54;;;;;;;33.40;21.98;;;0.20;1.00;;;;;;5033867;28;20245;-77
2022/12/09 02:59:23;;;;;;;34.83;22.35;;;0.10;1.00;;;;;;5041862;28;20260;-78
2022/12/09 03:02:05;;;;;;;28.83;19.80;;;0.10;1.00;;;;;;5039873;28;20249;-79
2022/12/09 03:04:35;;;;;;;32.92;20.35;;;0.20;1.00;;;;;;5041662;28;20230;-86
2022/12/09 03:07:20;;;;;;;31.25;20.52;;;0.20;1.00;;;;;;5032905;28;20236;-79
2022/12/09 03:09:57;;;;;;;30.40;21.00;;;0.30;1.00;;;;;;5036981;28;20226;-84
2022/12/09 03:12:34;;;;;;;32.45;21.58;;;0.30;1.00;;;;;;5034869;28;20229;-79
2022/12/09 03:15:04;;;;;;;29.83;20.20;;;0.40;1.00;;;;;;5034073;28;20245;-83
2022/12/09 03:17:36;;;;;;;32.13;22.13;;;0.40;1.00;;;;;;5034863;28;21006;-84
2022/12/09 03:20:08;;;;;;;32.03;23.10;;;0.50;1.00;;;;;;5036542;28;20249;-84
2022/12/09 03:22:40;;;;;;;29.88;21.70;;;0.50;1.00;;;;;;5036584;28;20237;-84
2022/12/09 03:25:13;;;;;;;31.10;21.67;;;0.40;1.00;;;;;;5034448;28;20738;-82
2022/12/09 03:27:54;;;;;;;33.58;21.55;;;0.30;1.00;;;;;;5038826;28;20242;-81
2022/12/09 03:30:24;;;;;;;34.28;21.38;;;0.30;1.00;;;;;;5039180;28;21123;-84
2022/12/09 03:32:58;;;;;;;34.85;22.25;;;0.30;1.00;;;;;;5037005;28;20248;-85
2022/12/09 03:35:36;;;;;;;32.97;21.58;;;0.20;1.00;;;;;;5034476;28;20285;-84
2022/12/09 03:38:14;;;;;;;36.40;22.63;;;0.20;1.00;;;;;;5034029;28;20300;-82
2022/12/09 03:40:42;;;;;;;34.60;21.85;;;0.10;1.00;;;;;;5039454;28;20260;-86
2022/12/09 03:43:21;;;;;;;32.63;22.58;;;0.10;1.00;;;;;;5038414;28;20325;-84
2022/12/09 03:45:54;;;;;;;31.75;21.38;;;0.10;1.00;;;;;;5054179;28;20263;-83
2022/12/09 03:48:25;;;;;;;33.92;22.02;;;0.20;1.00;;;;;;5055555;28;20233;-83
2022/12/09 03:51:01;;;;;;;32.67;21.50;;;0.10;1.00;;;;;;5062052;28;21209;-83
2022/12/09 03:53:37;;;;;;;36.35;22.25;;;0.20;1.00;;;;;;5063209;28;20309;-84
2022/12/09 03:56:14;;;;;;;33.15;21.30;;;0.30;1.00;;;;;;5054360;28;20993;-78
2022/12/09 03:58:44;;;;;;;29.33;21.58;;;0.40;1.00;;;;;;5055041;28;20233;-80
2022/12/09 04:01:19;;;;;;;37.53;22.92;;;0.40;1.00;;;;;;5051502;28;20241;-81
2022/12/09 04:03:53;;;;;;;33.08;22.60;;;0.50;1.00;;;;;;5061099;28;20244;-78
2022/12/09 04:06:20;;;;;;;31.52;21.83;;;0.60;1.00;;;;;;5057149;28;20688;-81
2022/12/09 04:08:56;;;;;;;36.58;20.52;;;0.60;1.00;;;;;;5065826;28;20236;-83
2022/12/09 04:11:23;;;;;;;31.65;21.60;;;0.50;1.00;;;;;;5063160;28;21005;-83
2022/12/09 04:13:55;;;;;;;35.47;24.13;;;0.50;1.00;;;;;;5063773;28;20230;-78
2022/12/09 04:16:22;;;;;;;34.70;22.13;;;0.50;1.00;;;;;;5061124;28;20225;-84
2022/12/09 04:19:00;;;;;;;34.28;21.95;;;0.40;1.00;;;;;;5064380;28;20233;-83
2022/12/09 04:21:27;;;;;;;33.25;22.75;;;0.30;1.00;;;;;;5057270;28;21667;-77
2022/12/09 04:23:56;;;;;;;33.65;22.90;;;0.30;1.00;;;;;;5054924;28;20231;-78
2022/12/09 04:26:23;;;;;;;36.47;24.23;;;0.30;1.00;;;;;;5057374;28;20292;-81
2022/12/09 04:28:55;;;;;;;37.00;25.20;;;0.30;1.00;;;;;;5060687;28;20234;-79
2022/12/09 04:31:22;;;;;;;32.50;24.10;;;0.30;1.00;;;;;;5057024;28;21109;-78
2022/12/09 04:33:53;;;;;;;33.85;23.02;;;0.20;1.00;;;;;;5066639;28;20229;-82
2022/12/09 04:36:24;;;;;;;33.08;22.92;;;0.20;1.00;;;;;;5060253;28;20244;-78
2022/12/09 04:38:58;;;;;;;33.33;23.50;;;0.20;1.00;;;;;;5055701;28;20228;-78
2022/12/09 04:41:27;;;;;;;33.35;22.20;;;0.20;1.00;;;;;;5058913;28;21917;-82
2022/12/09 04:43:57;;;;;;;36.50;23.63;;;0.30;1.00;;;;;;5058898;28;20236;-82
2022/12/09 04:46:24;;;;;;;38.55;25.25;;;0.30;1.00;;;;;;5061519;28;20245;-80
2022/12/09 04:48:56;;;;;;;34.97;24.55;;;0.30;1.00;;;;;;5053509;28;20232;-77
2022/12/09 04:51:23;;;;;;;34.55;23.38;;;0.40;1.00;;;;;;5056985;28;20264;-78
2022/12/09 04:54:00;;;;;;;33.78;23.10;;;0.40;1.00;;;;;;5040034;28;20298;-78
2022/12/09 04:56:33;;;;;;;35.70;23.90;;;0.30;1.00;;;;;;5057054;28;20622;-81
2022/12/09 04:59:00;;;;;;;34.78;22.25;;;0.20;1.00;;;;;;5055524;28;20282;-78
2022/12/09 05:01:31;;;;;;;37.47;23.45;;;0.20;1.00;;;;;;5056508;28;20253;-77
2022/12/09 05:04:02;;;;;;;37.00;23.77;;;0.10;1.00;;;;;;5057961;28;20235;-79
2022/12/09 05:06:33;;;;;;;35.05;22.95;;;0.20;1.00;;;;;;5056155;28;20238;-83
2022/12/09 05:09:01;;;;;;;33.28;22.88;;;0.30;1.00;;;;;;5053961;28;20273;-79
2022/12/09 05:11:38;;;;;;;34.70;23.42;;;0.30;1.00;;;;;;5057297;28;20238;-77
2022/12/09 05:14:05;;;;;;;30.17;21.02;;;0.40;1.00;;;;;;5063289;28;20240;-82
2022/12/09 05:16:36;;;;;;;33.75;21.88;;;0.50;1.00;;;;;;5057568;28;20239;-78
2022/12/09 05:19:03;;;;;;;30.20;20.52;;;0.50;1.00;;;;;;5056766;28;20238;-78
2022/12/09 05:21:37;;;;;;;44.95;28.80;;;0.60;1.00;;;;;;5055276;28;21058;-83
2022/12/09 05:24:06;;;;;;;33.38;21.83;;;0.50;1.00;;;;;;5057137;28;21168;-77
2022/12/09 05:26:37;;;;;;;32.92;20.75;;;0.40;1.00;;;;;;5056709;28;20233;-78
2022/12/09 05:29:05;;;;;;;31.33;21.10;;;0.40;1.00;;;;;;5058542;28;20237;-77
2022/12/09 05:31:36;;;;;;;33.63;22.88;;;0.40;1.00;;;;;;5051436;28;20233;-78
2022/12/09 05:34:03;;;;;;;30.95;19.05;;;0.30;1.00;;;;;;5056225;28;20276;-84
2022/12/09 05:36:35;;;;;;;32.88;20.33;;;0.30;1.00;;;;;;5058909;28;20244;-82
2022/12/09 05:39:02;;;;;;;30.70;19.85;;;0.30;1.00;;;;;;5056278;28;20228;-81
2022/12/09 05:41:38;;;;;;;33.13;20.98;;;0.30;1.00;;;;;;5060700;28;20243;-84
2022/12/09 05:44:07;;;;;;;34.95;21.17;;;0.20;1.00;;;;;;5057094;28;20242;-80
2022/12/09 05:46:37;;;;;;;33.30;20.85;;;0.20;1.00;;;;;;5040317;28;20307;-81
2022/12/09 05:49:05;;;;;;;34.83;22.15;;;0.20;1.00;;;;;;5036048;28;20236;-76
2022/12/09 05:51:35;;;;;;;40.17;22.25;;;0.20;1.00;;;;;;5042151;28;20226;-81
2022/12/09 05:54:06;;;;;;;36.45;20.58;;;0.00;1.00;;;;;;5035953;28;20249;-80
2022/12/09 05:56:35;;;;;;;33.65;20.80;;;-0.10;1.00;;;;;;5016565;28;20242;-80
2022/12/09 05:59:06;;;;;;;34.22;22.92;;;-0.20;1.00;;;;;;5010579;28;20267;-83
2022/12/09 06:01:35;;;;;;;33.38;21.75;;;-0.30;1.00;;;;;;5014039;28;21033;-78
2022/12/09 06:04:05;;;;;;;35.05;21.48;;;-0.20;1.00;;;;;;5020395;28;20282;-79
2022/12/09 06:06:35;;;;;;;34.25;20.55;;;-0.20;1.00;;;;;;5010714;28;20276;-79
2022/12/09 06:09:10;;;;;;;32.72;20.95;;;-0.20;1.00;;;;;;5020360;28;20246;-77
2022/12/09 06:11:37;;;;;;;29.33;19.45;;;-0.10;1.00;;;;;;5019980;28;20253;-80
2022/12/09 06:14:26;;;;;;;32.28;20.77;;;-0.10;1.00;;;;;;5018166;28;20228;-81
2022/12/09 06:16:55;;;;;;;32.63;20.80;;;-0.10;1.00;;;;;;5023760;28;20241;-80
2022/12/09 06:19:27;;;;;;;31.05;21.52;;;-0.10;1.00;;;;;;5021428;28;20274;-81
2022/12/09 06:21:55;;;;;;;40.58;20.98;;;0.00;1.00;;;;;;5020650;28;20243;-77
2022/12/09 06:24:22;;;;;;;35.55;20.33;;;-0.10;1.00;;;;;;5013146;28;20230;-80
2022/12/09 06:26:56;;;;;;;36.00;21.10;;;-0.10;1.00;;;;;;5021406;28;20284;-79
2022/12/09 06:29:27;;;;;;;35.83;21.15;;;-0.10;1.00;;;;;;5061222;28;20248;-77
2022/12/09 06:31:54;;;;;;;37.53;21.30;;;0.00;1.00;;;;;;5059117;28;20252;-79
2022/12/09 06:34:24;;;;;;;32.72;20.08;;;0.10;1.00;;;;;;5061423;28;20245;-80
2022/12/09 06:39:48;;;;;;;34.53;20.23;;;0.20;1.00;;;;;;5045288;28;20222;-82
2022/12/09 06:42:15;;;;;;;31.33;19.40;;;0.20;1.00;;;;;;5062957;28;20369;-80
2022/12/09 06:44:47;;;;;;;32.63;21.25;;;0.20;1.00;;;;;;5055520;28;20281;-80
2022/12/09 06:47:16;;;;;;;28.35;19.25;;;0.30;1.00;;;;;;5022397;28;20285;-76
2022/12/09 06:49:47;;;;;;;28.30;18.13;;;0.30;1.00;;;;;;5011524;28;20980;-86
2022/12/09 06:52:16;;;;;;;28.65;17.77;;;0.30;1.00;;;;;;5034349;28;20244;-82
2022/12/09 06:54:47;;;;;;;33.08;18.40;;;0.30;1.00;;;;;;5019162;28;20252;-84
2022/12/09 06:57:27;;;;;;;34.80;20.25;;;0.20;1.00;;;;;;5023790;28;21100;-85
2022/12/09 07:00:04;;;;;;;38.58;20.27;;;0.10;1.00;;;;;;5032007;28;20244;-80
2022/12/09 07:02:45;;;;;;;36.75;19.40;;;0.10;1.00;;;;;;5046146;28;20293;-80
2022/12/09 07:05:16;;;;;;;34.35;20.65;;;0.20;1.00;;;;;;5048231;28;20245;-79
2022/12/09 07:08:04;;;;;;;36.38;18.40;;;0.20;1.00;;;;;;5043127;28;20316;-79
2022/12/09 07:10:37;;;;;;;41.65;19.00;;;0.10;1.00;;;;;;5047261;28;20260;-79
2022/12/09 07:13:28;;;;;;;36.67;18.92;;;0.10;1.00;;;;;;5046851;28;20264;-83
2022/12/09 07:16:17;;;;;;;34.03;19.52;;;0.20;1.00;;;;;;5031722;28;20225;-87
2022/12/09 07:18:48;;;;;;;34.10;17.75;;;0.30;1.00;;;;;;5040741;28;20245;-80
2022/12/09 07:21:58;;;;;;;;;;;;;;;;;;;;;
2022/12/09 07:24:53;;;;;;;33.47;17.30;;;0.20;1.00;;;;;;4917929;28;50892;-78
2022/12/09 07:27:31;;;;;;;32.05;20.10;;;0.30;1.00;;;;;;5036187;28;20288;-85
2022/12/09 07:29:58;;;;;;;36.33;18.05;;;0.30;1.00;;;;;;5048262;28;20270;-84
2022/12/09 07:35:12;;;;;;;44.58;21.48;;;0.30;1.00;;;;;;5041123;28;20260;-82
2022/12/09 07:37:44;;;;;;;40.70;20.67;;;0.40;1.00;;;;;;5043548;28;20242;-82
2022/12/09 07:40:15;;;;;;;49.10;22.67;;;0.40;1.00;;;;;;5032117;28;20815;-76
2022/12/09 07:42:45;;;;;;;40.63;21.02;;;0.40;1.00;;;;;;5061801;28;20218;-78
2022/12/09 07:45:16;;;;;;;48.88;23.80;;;0.40;1.00;;;;;;5070259;28;20229;-86
2022/12/09 07:47:51;;;;;;;48.95;23.25;;;0.40;1.00;;;;;;5070972;28;20224;-84
2022/12/09 07:50:26;;;;;;;46.22;24.30;;;0.40;1.00;;;;;;5057823;28;20241;-77
2022/12/09 07:52:53;;;;;;;52.47;26.30;;;0.50;1.00;;;;;;5046609;28;20263;-77
2022/12/09 07:55:26;;;;;;;56.17;26.08;;;0.40;1.00;;;;;;5049219;28;20213;-79
2022/12/09 07:57:53;;;;;;;49.92;25.85;;;0.40;1.00;;;;;;5061423;28;20225;-83
2022/12/09 08:00:26;;;;;;;48.17;24.77;;;0.40;1.00;;;;;;5066432;28;20301;-78
2022/12/09 08:02:57;;;;;;;52.70;27.23;;;0.50;1.00;;;;;;5054273;28;20261;-84
2022/12/09 08:05:32;;;;;;;50.78;25.23;;;0.40;1.00;;;;;;5069350;28;21072;-84
2022/12/09 08:08:05;;;;;;;39.95;22.02;;;0.40;1.00;;;;;;5038231;28;20248;-83
2022/12/09 08:10:48;;;;;;;43.97;22.55;;;0.50;1.00;;;;;;5062455;28;20253;-77
2022/12/09 08:13:18;;;;;;;48.90;24.05;;;0.70;1.00;;;;;;5062841;28;21058;-77
2022/12/09 08:15:59;;;;;;;57.03;26.58;;;0.70;1.00;;;;;;5058687;28;20252;-78
2022/12/09 08:18:38;;;;;;;49.60;26.67;;;0.80;1.00;;;;;;5066899;28;20319;-77
2022/12/09 08:24:07;;;;;;;52.78;27.45;;;1.00;1.00;;;;;;5043113;28;20251;-77
2022/12/09 08:26:39;;;;;;;59.75;28.80;;;0.90;1.00;;;;;;5065415;28;20234;-80
2022/12/09 08:29:13;;;;;;;50.50;26.00;;;0.90;1.00;;;;;;5057998;28;20240;-85
2022/12/09 08:31:42;;;;;;;67.93;26.60;;;1.00;1.00;;;;;;5057397;28;20264;-80
2022/12/09 08:34:15;;;;;;;48.38;25.25;;;1.00;1.00;;;;;;5059518;28;20237;-81
2022/12/09 08:36:45;;;;;;;59.55;28.67;;;1.00;1.00;;;;;;5055741;28;20241;-80
2022/12/09 08:39:13;;;;;;;59.42;27.60;;;0.90;1.00;;;;;;5054508;28;20245;-79
2022/12/09 08:41:43;;;;;;;51.42;27.10;;;0.80;1.00;;;;;;5055161;28;20246;-84
2022/12/09 08:44:13;;;;;;;55.78;26.92;;;0.70;1.00;;;;;;5059431;28;20260;-82
2022/12/09 08:46:42;;;;;;;50.97;26.38;;;0.70;1.00;;;;;;5037293;28;20245;-82
2022/12/09 08:49:11;;;;;;;58.63;28.17;;;0.70;1.00;;;;;;5034225;28;20238;-81
2022/12/09 08:51:39;;;;;;;58.38;27.48;;;0.80;1.00;;;;;;5030994;28;20270;-77
2022/12/09 08:54:06;;;;;;;52.40;28.00;;;0.80;1.00;;;;;;5039372;28;20329;-78
2022/12/09 08:56:36;;;;;;;57.35;28.33;;;0.90;1.00;;;;;;5035354;28;20230;-81
2022/12/09 08:59:06;;;;;;;55.80;25.20;;;1.00;1.00;;;;;;5041056;28;20238;-82
2022/12/09 09:01:36;;;;;;;48.45;24.27;;;1.10;1.00;;;;;;5042859;28;20263;-77
2022/12/09 09:04:07;;;;;;;52.47;26.52;;;0.90;1.00;;;;;;5039372;28;20246;-83
2022/12/09 09:06:39;;;;;;;50.50;28.65;;;0.90;1.00;;;;;;5036793;28;20230;-80
2022/12/09 09:09:08;;;;;;;50.55;26.85;;;0.90;1.00;;;;;;5022367;28;20326;-79
2022/12/09 09:11:36;;;;;;;47.65;26.42;;;1.10;1.00;;;;;;5045318;28;20237;-83
2022/12/09 09:14:18;;;;;;;45.08;25.00;;;1.20;1.00;;;;;;5025045;28;20234;-86
2022/12/09 09:16:48;;;;;;;46.67;23.42;;;1.20;1.00;;;;;;5031175;28;20241;-78
2022/12/09 09:19:25;;;;;;;50.42;24.65;;;1.20;1.00;;;;;;5035007;28;20238;-83
2022/12/09 09:22:18;;;;;;;46.28;24.77;;;1.30;1.00;;;;;;5044281;28;20238;-79
2022/12/09 09:24:46;;;;;;;52.05;24.15;;;1.40;1.00;;;;;;4979340;28;21133;-84
2022/12/09 09:27:18;;;;;;;46.97;25.02;;;1.40;1.00;;;;;;4997166;28;20293;-77
2022/12/09 09:29:47;;;;;;;39.55;24.60;;;1.50;1.00;;;;;;5042153;28;20244;-77
2022/12/09 09:32:19;;;;;;;44.60;25.05;;;1.40;1.00;;;;;;5039902;28;20250;-77
2022/12/09 09:34:49;;;;;;;45.22;24.15;;;1.40;1.00;;;;;;5038845;28;20845;-83
2022/12/09 09:37:25;;;;;;;44.90;23.70;;;1.40;1.00;;;;;;5028390;28;20223;-82
2022/12/09 09:40:07;;;;;;;43.33;23.67;;;1.50;1.00;;;;;;5028865;28;20234;-79
2022/12/09 09:42:45;;;;;;;47.90;23.70;;;1.60;1.00;;;;;;5014055;28;20239;-77
2022/12/09 09:45:21;;;;;;;43.05;24.25;;;1.40;1.00;;;;;;5037966;28;20435;-84
2022/12/09 09:47:56;;;;;;;46.83;23.02;;;1.40;1.00;;;;;;5052101;28;20241;-77
2022/12/09 09:50:36;;;;;;;50.20;24.17;;;1.40;1.00;;;;;;5056690;28;20260;-76
2022/12/09 09:53:19;;;;;;;40.47;23.10;;;1.40;1.00;;;;;;5058150;28;20294;-78
2022/12/09 09:55:54;;;;;;;46.38;22.52;;;1.30;1.00;;;;;;5055041;28;20237;-79
2022/12/09 09:58:37;;;;;;;49.72;22.80;;;1.10;1.00;;;;;;5056350;28;20237;-83
2022/12/09 10:01:08;;;;;;;42.63;23.05;;;1.10;1.00;;;;;;5038397;28;20268;-78
2022/12/09 10:03:57;;;;;;;39.85;21.80;;;1.20;1.00;;;;;;5031909;28;20262;-83
2022/12/09 10:06:38;;;;;;;42.85;22.90;;;1.30;1.00;;;;;;5044482;28;20930;-82
2022/12/09 10:09:21;;;;;;;47.28;24.55;;;1.40;1.00;;;;;;5043503;28;20306;-82
2022/12/09 10:12:17;;;;;;;43.17;22.42;;;1.50;1.00;;;;;;5054679;28;20237;-81
2022/12/09 10:14:56;;;;;;;43.42;22.17;;;1.70;1.00;;;;;;5044204;28;20238;-82
2022/12/09 10:17:28;;;;;;;38.53;23.95;;;1.90;1.00;;;;;;5043467;28;20311;-86
2022/12/09 10:20:05;;;;;;;46.00;24.38;;;2.00;1.00;;;;;;5065053;28;20247;-84
2022/12/09 10:22:46;;;;;;;40.70;22.20;;;2.20;1.00;;;;;;5048469;28;20237;-82
2022/12/09 10:25:28;;;;;;;46.72;25.65;;;2.30;1.00;;;;;;5046836;28;20257;-84
2022/12/09 10:28:16;;;;;;;40.20;23.80;;;2.30;1.00;;;;;;5051882;28;20236;-84
2022/12/09 10:30:49;;;;;;;41.63;22.45;;;2.20;1.00;;;;;;5061897;28;21007;-81
2022/12/09 10:33:26;;;;;;;39.00;21.63;;;2.10;1.00;;;;;;5059146;28;20212;-82
2022/12/09 10:36:21;;;;;;;33.53;20.73;;;2.10;1.00;;;;;;5068614;28;20209;-81
2022/12/09 10:38:51;;;;;;;34.13;20.50;;;2.20;1.00;;;;;;5045620;28;20238;-82
2022/12/09 10:44:27;;;;;;;30.70;17.05;;;2.50;1.00;;;;;;5057608;28;20238;-85
2022/12/09 10:46:59;;;;;;;28.25;16.67;;;2.60;1.00;;;;;;5063651;28;20233;-84
2022/12/09 10:49:27;;;;;;;32.60;17.08;;;2.40;1.00;;;;;;5062050;28;20237;-84
2022/12/09 10:52:03;;;;;;;28.27;15.77;;;2.10;1.00;;;;;;5059259;28;20310;-84
2022/12/09 10:54:37;;;;;;;33.03;16.85;;;2.10;1.00;;;;;;5063795;28;20237;-83
2022/12/09 10:57:24;;;;;;;30.08;16.30;;;2.00;1.00;;;;;;5067286;28;20232;-85
2022/12/09 11:00:02;;;;;;;27.08;14.88;;;2.00;1.00;;;;;;5071386;28;20300;-84
2022/12/09 11:02:35;;;;;;;29.25;17.48;;;1.90;1.00;;;;;;5069405;28;20236;-84
2022/12/09 11:05:33;;;;;;;26.77;16.23;;;1.90;1.00;;;;;;5077431;28;20221;-83
2022/12/09 11:08:35;;;;;;;35.22;17.85;;;1.90;1.00;;;;;;5043951;28;20241;-82
2022/12/09 11:11:16;;;;;;;26.88;15.70;;;1.90;1.00;;;;;;5044984;28;20249;-80
2022/12/09 11:13:54;;;;;;;27.73;15.00;;;1.90;1.00;;;;;;5054771;28;20272;-82
2022/12/09 11:16:38;;;;;;;24.33;14.15;;;1.80;1.00;;;;;;5087854;28;20235;-83
2022/12/09 11:19:06;;;;;;;27.63;15.85;;;1.90;1.00;;;;;;5083065;28;20240;-85
2022/12/09 11:21:38;;;;;;;29.95;16.42;;;2.10;1.00;;;;;;5085873;28;20260;-82
2022/12/09 11:24:21;;;;;;;24.90;15.57;;;2.10;1.00;;;;;;5087998;28;20302;-82
2022/12/09 11:26:53;;;;;;;26.70;15.20;;;2.20;1.00;;;;;;5085911;28;20233;-81
2022/12/09 11:29:25;;;;;;;24.85;15.75;;;2.10;1.00;;;;;;5083708;28;20238;-82
2022/12/09 11:31:55;;;;;;;23.10;15.07;;;2.20;1.00;;;;;;5083788;28;20233;-84
2022/12/09 11:34:39;;;;;;;;;;;;;;;;;;;;;
2022/12/09 11:37:26;;;;;;;26.48;14.48;;;2.20;1.00;;;;;;5075137;28;50747;-83
2022/12/09 11:39:59;;;;;;;24.05;14.45;;;2.00;1.00;;;;;;5090075;28;20256;-84
2022/12/09 11:42:39;;;;;;;;;;;;;;;;;;;;;
2022/12/09 11:45:18;;;;;;;30.08;15.75;;;1.90;1.00;;;;;;5072527;28;49605;-82
2022/12/09 11:47:47;;;;;;;34.30;13.82;;;2.10;1.00;;;;;;5062277;28;20893;-81
2022/12/09 11:50:21;;;;;;;25.73;14.82;;;2.30;1.00;;;;;;5060382;28;20242;-80
2022/12/09 11:53:21;;;;;;;27.15;15.27;;;2.30;1.00;;;;;;5082058;28;20241;-82
2022/12/09 11:55:59;;;;;;;24.55;13.20;;;2.40;1.00;;;;;;5079871;28;20252;-81
2022/12/09 11:58:36;;;;;;;26.90;13.90;;;2.50;1.00;;;;;;5084226;28;20241;-81
2022/12/09 12:01:16;;;;;;;21.63;12.05;;;2.60;1.00;;;;;;5072136;28;20241;-81
2022/12/09 12:03:48;;;;;;;21.83;12.45;;;2.60;1.00;;;;;;5071235;28;20312;-83
2022/12/09 12:06:29;;;;;;;22.42;12.13;;;2.60;1.00;;;;;;5087684;28;20259;-84
2022/12/09 12:09:16;;;;;;;18.23;11.40;;;2.40;1.00;;;;;;5077070;28;20221;-81
2022/12/09 12:11:56;;;;;;;20.33;12.18;;;2.30;1.00;;;;;;5074830;28;20236;-80
2022/12/09 12:14:46;;;;;;;21.05;11.50;;;2.30;1.00;;;;;;5086738;28;20314;-80
2022/12/09 12:17:38;;;;;;;21.05;11.45;;;2.10;1.00;;;;;;5072334;28;20241;-82
2022/12/09 12:20:17;;;;;;;23.23;12.45;;;2.10;1.00;;;;;;5069040;28;20228;-82
2022/12/09 12:23:05;;;;;;;26.45;12.18;;;2.10;1.00;;;;;;5077379;28;20241;-83
2022/12/09 12:25:59;;;;;;;21.90;11.77;;;2.00;1.00;;;;;;5062928;28;20248;-81
2022/12/09 12:29:11;;;;;;;22.15;11.88;;;2.00;1.00;;;;;;5081973;28;20241;-83
2022/12/09 12:32:07;;;;;;;22.30;12.32;;;1.90;1.00;;;;;;5033608;28;20211;-86
2022/12/09 12:35:00;;;;;;;21.27;14.20;;;1.90;1.00;;;;;;5072820;28;20220;-81
2022/12/09 12:37:46;;;;;;;20.60;12.32;;;1.90;1.00;;;;;;5062268;28;20303;-82
2022/12/09 12:40:28;;;;;;;18.98;12.77;;;1.80;1.00;;;;;;5077194;28;20236;-83
2022/12/09 12:46:20;;;;;;;23.48;14.40;;;1.50;1.00;;;;;;5088678;28;20228;-82
2022/12/09 12:49:08;;;;;;;27.23;15.60;;;1.40;1.00;;;;;;5085055;28;20243;-81
2022/12/09 12:52:00;;;;;;;25.73;14.82;;;1.50;1.00;;;;;;5078719;28;20241;-80
2022/12/09 12:54:49;;;;;;;25.27;13.85;;;1.50;1.00;;;;;;5057343;28;20225;-79
2022/12/09 12:57:24;;;;;;;25.27;15.88;;;1.40;1.00;;;;;;5060622;28;21020;-83
2022/12/09 13:00:05;;;;;;;46.13;29.05;;;1.50;1.00;;;;;;5055782;28;20373;-83
2022/12/09 13:02:52;;;;;;;22.27;13.82;;;1.50;1.00;;;;;;5071357;28;20239;-84
2022/12/09 13:05:24;;;;;;;22.55;14.57;;;1.50;1.00;;;;;;5046325;28;20253;-77
2022/12/09 13:08:03;;;;;;;26.08;14.20;;;1.40;1.00;;;;;;5050145;28;20233;-82
2022/12/09 13:10:42;;;;;;;25.75;13.55;;;1.40;1.00;;;;;;5054610;28;20239;-80
2022/12/09 13:13:25;;;;;;;20.30;12.32;;;1.40;1.00;;;;;;5063230;28;20316;-80
2022/12/09 13:16:20;;;;;;;24.67;15.20;;;1.50;1.00;;;;;;5074229;28;20221;-84
2022/12/09 13:19:22;;;;;;;20.88;12.82;;;1.50;1.00;;;;;;5045537;28;20296;-83
2022/12/09 13:22:03;;;;;;;27.70;14.88;;;1.50;1.00;;;;;;5044863;28;20217;-85
2022/12/09 13:24:59;;;;;;;21.98;13.23;;;1.50;1.00;;;;;;5070403;28;20233;-80
2022/12/09 13:27:45;;;;;;;21.70;12.73;;;1.50;1.00;;;;;;5047602;28;20222;-88
2022/12/09 13:30:28;;;;;;;25.52;17.02;;;1.50;1.00;;;;;;5059122;28;20244;-81
2022/12/09 13:36:52;;;;;;;21.85;12.60;;;1.50;1.00;;;;;;5045510;28;20232;-83
2022/12/09 13:39:56;;;;;;;19.25;12.35;;;1.40;1.00;;;;;;5068418;28;20220;-83
2022/12/09 13:43:19;;;;;;;23.60;13.95;;;1.30;1.00;;;;;;5068604;28;20232;-88
2022/12/09 13:45:58;;;;;;;21.05;12.85;;;1.30;1.00;;;;;;5083692;28;20396;-83
2022/12/09 13:48:57;;;;;;;19.60;11.82;;;1.30;1.00;;;;;;5065431;28;20211;-85
2022/12/09 13:54:31;;;;;;;20.65;13.50;;;1.30;1.00;;;;;;5015396;28;20557;-80
2022/12/09 13:57:28;;;;;;;20.58;12.50;;;1.30;1.00;;;;;;5063802;28;20225;-86